sensor_id;sensor_type;location;lat;lon;timestamp;temperature;humidity
9399;DHT22;4739;49.334;8.792;2023-02-25T00:01:48;6.30;99.90
9399;DHT22;4739;49.334;8.792;2023-02-25T00:04:14;6.30;99.90
9399;DHT22;4739;49.334;8.792;2023-02-25T00:06:40;6.30;99.90
9399;DHT22;4739;49.334;8.792;2023-02-25T00:09:06;6.20;99.90
9399;DHT22;4739;49.334;8.792;2023-02-25T00:11:35;6.20;99.90
9399;DHT22;4739;49.334;8.792;2023-02-25T00:14:01;6.30;99.90
9399;DHT22;4739;49.334;8.792;2023-02-25T00:16:27;6.30;99.90
9399;DHT22;4739;49.334;8.792;2023-02-25T00:18:54;6.20;99.90
9399;DHT22;4739;49.334;8.792;2023-02-25T00:21:20;6.10;99.90
9399;DHT22;4739;49.334;8.792;2023-02-25T00:23:48;6.20;99.90
9399;DHT22;4739;49.334;8.792;2023-02-25T00:26:16;6.00;99.90
9399;DHT22;4739;49.334;8.792;2023-02-25T00:28:42;6.00;99.90
9399;DHT22;4739;49.334;8.792;2023-02-25T00:31:14;6.10;99.90
9399;DHT22;4739;49.334;8.792;2023-02-25T00:33:40;6.00;99.90
9399;DHT22;4739;49.334;8.792;2023-02-25T00:36:11;6.10;99.90
9399;DHT22;4739;49.334;8.792;2023-02-25T00:38:37;6.10;99.90
9399;DHT22;4739;49.334;8.792;2023-02-25T00:41:08;6.00;99.90
9399;DHT22;4739;49.334;8.792;2023-02-25T00:43:41;6.00;99.90
9399;DHT22;4739;49.334;8.792;2023-02-25T00:46:08;5.90;99.90
9399;DHT22;4739;49.334;8.792;2023-02-25T00:48:35;5.90;99.90
9399;DHT22;4739;49.334;8.792;2023-02-25T00:51:10;5.80;99.90
9399;DHT22;4739;49.334;8.792;2023-02-25T00:53:37;5.80;99.90
9399;DHT22;4739;49.334;8.792;2023-02-25T00:56:04;5.80;99.90
9399;DHT22;4739;49.334;8.792;2023-02-25T00:58:31;5.80;99.90
9399;DHT22;4739;49.334;8.792;2023-02-25T01:00:56;5.80;99.90
9399;DHT22;4739;49.334;8.792;2023-02-25T01:03:22;5.80;99.90
9399;DHT22;4739;49.334;8.792;2023-02-25T01:05:48;5.80;99.90
9399;DHT22;4739;49.334;8.792;2023-02-25T01:08:18;5.80;99.90
9399;DHT22;4739;49.334;8.792;2023-02-25T01:10:45;5.70;99.90
9399;DHT22;4739;49.334;8.792;2023-02-25T01:13:11;5.70;99.90
9399;DHT22;4739;49.334;8.792;2023-02-25T01:15:37;5.70;99.90
9399;DHT22;4739;49.334;8.792;2023-02-25T01:18:03;5.60;99.90
9399;DHT22;4739;49.334;8.792;2023-02-25T01:20:28;5.60;99.90
9399;DHT22;4739;49.334;8.792;2023-02-25T01:22:55;5.60;99.90
9399;DHT22;4739;49.334;8.792;2023-02-25T01:25:21;5.60;99.90
9399;DHT22;4739;49.334;8.792;2023-02-25T01:27:47;5.60;99.90
9399;DHT22;4739;49.334;8.792;2023-02-25T01:30:13;5.60;99.90
9399;DHT22;4739;49.334;8.792;2023-02-25T01:32:38;5.50;99.90
9399;DHT22;4739;49.334;8.792;2023-02-25T01:35:04;5.40;99.90
9399;DHT22;4739;49.334;8.792;2023-02-25T01:37:30;5.40;99.90
9399;DHT22;4739;49.334;8.792;2023-02-25T01:39:56;5.40;99.90
9399;DHT22;4739;49.334;8.792;2023-02-25T01:42:21;5.30;99.90
9399;DHT22;4739;49.334;8.792;2023-02-25T01:45:27;5.30;99.90
9399;DHT22;4739;49.334;8.792;2023-02-25T01:48:08;5.40;99.90
9399;DHT22;4739;49.334;8.792;2023-02-25T01:50:56;5.40;99.90
9399;DHT22;4739;49.334;8.792;2023-02-25T01:53:26;5.50;99.90
9399;DHT22;4739;49.334;8.792;2023-02-25T01:55:54;5.50;99.90
9399;DHT22;4739;49.334;8.792;2023-02-25T01:58:21;5.40;99.90
9399;DHT22;4739;49.334;8.792;2023-02-25T02:00:47;5.40;99.90
9399;DHT22;4739;49.334;8.792;2023-02-25T02:03:13;5.50;99.90
9399;DHT22;4739;49.334;8.792;2023-02-25T02:05:53;5.50;99.90
9399;DHT22;4739;49.334;8.792;2023-02-25T02:08:20;5.50;99.90
9399;DHT22;4739;49.334;8.792;2023-02-25T02:10:47;5.50;99.90
9399;DHT22;4739;49.334;8.792;2023-02-25T02:13:13;5.50;99.90
9399;DHT22;4739;49.334;8.792;2023-02-25T02:15:44;5.50;99.90
9399;DHT22;4739;49.334;8.792;2023-02-25T02:18:12;5.40;99.90
9399;DHT22;4739;49.334;8.792;2023-02-25T02:20:42;5.30;99.90
9399;DHT22;4739;49.334;8.792;2023-02-25T02:36:56;5.10;99.90
9399;DHT22;4739;49.334;8.792;2023-02-25T02:45:25;5.20;99.90
9399;DHT22;4739;49.334;8.792;2023-02-25T02:48:02;5.20;99.90
9399;DHT22;4739;49.334;8.792;2023-02-25T02:50:37;5.20;99.90
9399;DHT22;4739;49.334;8.792;2023-02-25T02:53:09;5.30;99.90
9399;DHT22;4739;49.334;8.792;2023-02-25T02:55:40;5.30;99.90
9399;DHT22;4739;49.334;8.792;2023-02-25T02:58:52;5.20;99.90
9399;DHT22;4739;49.334;8.792;2023-02-25T03:01:20;5.10;99.90
9399;DHT22;4739;49.334;8.792;2023-02-25T03:03:55;5.10;99.90
9399;DHT22;4739;49.334;8.792;2023-02-25T03:06:28;5.10;99.90
9399;DHT22;4739;49.334;8.792;2023-02-25T03:09:06;5.00;99.90
9399;DHT22;4739;49.334;8.792;2023-02-25T03:11:34;4.90;99.90
9399;DHT22;4739;49.334;8.792;2023-02-25T03:13:59;5.00;99.90
9399;DHT22;4739;49.334;8.792;2023-02-25T03:16:38;5.10;99.90
9399;DHT22;4739;49.334;8.792;2023-02-25T03:19:10;5.10;99.90
9399;DHT22;4739;49.334;8.792;2023-02-25T03:21:51;5.10;99.90
9399;DHT22;4739;49.334;8.792;2023-02-25T03:24:22;5.10;99.90
9399;DHT22;4739;49.334;8.792;2023-02-25T03:26:51;5.10;99.90
9399;DHT22;4739;49.334;8.792;2023-02-25T03:29:22;5.10;99.90
9399;DHT22;4739;49.334;8.792;2023-02-25T03:32:11;5.20;99.90
9399;DHT22;4739;49.334;8.792;2023-02-25T03:34:43;5.20;99.90
9399;DHT22;4739;49.334;8.792;2023-02-25T03:37:17;5.20;99.90
9399;DHT22;4739;49.334;8.792;2023-02-25T03:39:49;5.00;99.90
9399;DHT22;4739;49.334;8.792;2023-02-25T03:42:19;5.10;99.90
9399;DHT22;4739;49.334;8.792;2023-02-25T03:44:51;5.20;99.90
9399;DHT22;4739;49.334;8.792;2023-02-25T03:47:20;5.20;99.90
9399;DHT22;4739;49.334;8.792;2023-02-25T03:52:38;5.00;99.90
9399;DHT22;4739;49.334;8.792;2023-02-25T03:55:05;5.10;99.90
9399;DHT22;4739;49.334;8.792;2023-02-25T03:57:41;5.10;99.90
9399;DHT22;4739;49.334;8.792;2023-02-25T04:00:14;5.20;99.90
9399;DHT22;4739;49.334;8.792;2023-02-25T04:02:44;5.20;99.90
9399;DHT22;4739;49.334;8.792;2023-02-25T04:05:10;5.20;99.90
9399;DHT22;4739;49.334;8.792;2023-02-25T04:07:37;5.20;99.90
9399;DHT22;4739;49.334;8.792;2023-02-25T04:10:04;5.30;99.90
9399;DHT22;4739;49.334;8.792;2023-02-25T04:12:30;5.30;99.90
9399;DHT22;4739;49.334;8.792;2023-02-25T04:14:55;5.20;99.90
9399;DHT22;4739;49.334;8.792;2023-02-25T04:17:21;5.20;99.90
9399;DHT22;4739;49.334;8.792;2023-02-25T04:19:47;5.00;99.90
9399;DHT22;4739;49.334;8.792;2023-02-25T04:22:12;5.00;99.90
9399;DHT22;4739;49.334;8.792;2023-02-25T04:24:38;5.10;99.90
9399;DHT22;4739;49.334;8.792;2023-02-25T04:27:03;5.10;99.90
9399;DHT22;4739;49.334;8.792;2023-02-25T04:29:29;5.10;99.90
9399;DHT22;4739;49.334;8.792;2023-02-25T04:31:55;5.20;99.90
9399;DHT22;4739;49.334;8.792;2023-02-25T04:34:21;5.10;99.90
9399;DHT22;4739;49.334;8.792;2023-02-25T04:36:47;5.20;99.90
9399;DHT22;4739;49.334;8.792;2023-02-25T04:39:15;5.10;99.90
9399;DHT22;4739;49.334;8.792;2023-02-25T04:41:41;5.10;99.90
9399;DHT22;4739;49.334;8.792;2023-02-25T04:44:07;5.10;99.90
9399;DHT22;4739;49.334;8.792;2023-02-25T04:46:38;5.20;99.90
9399;DHT22;4739;49.334;8.792;2023-02-25T04:49:04;5.20;99.90
9399;DHT22;4739;49.334;8.792;2023-02-25T04:51:30;5.10;99.90
9399;DHT22;4739;49.334;8.792;2023-02-25T04:53:56;5.20;99.90
9399;DHT22;4739;49.334;8.792;2023-02-25T04:56:22;5.20;99.90
9399;DHT22;4739;49.334;8.792;2023-02-25T04:58:47;5.20;99.90
9399;DHT22;4739;49.334;8.792;2023-02-25T05:01:13;5.10;99.90
9399;DHT22;4739;49.334;8.792;2023-02-25T05:03:39;5.30;99.90
9399;DHT22;4739;49.334;8.792;2023-02-25T05:06:06;5.30;99.90
9399;DHT22;4739;49.334;8.792;2023-02-25T05:08:32;5.30;99.90
9399;DHT22;4739;49.334;8.792;2023-02-25T05:10:58;5.30;99.90
9399;DHT22;4739;49.334;8.792;2023-02-25T05:13:24;5.30;99.90
9399;DHT22;4739;49.334;8.792;2023-02-25T05:15:49;5.30;99.90
9399;DHT22;4739;49.334;8.792;2023-02-25T05:18:15;5.40;99.90
9399;DHT22;4739;49.334;8.792;2023-02-25T05:20:45;5.30;99.90
9399;DHT22;4739;49.334;8.792;2023-02-25T05:23:11;5.30;99.90
9399;DHT22;4739;49.334;8.792;2023-02-25T05:25:37;5.30;99.90
9399;DHT22;4739;49.334;8.792;2023-02-25T05:28:07;5.30;99.90
9399;DHT22;4739;49.334;8.792;2023-02-25T05:30:33;5.30;99.90
9399;DHT22;4739;49.334;8.792;2023-02-25T05:32:58;5.30;99.90
9399;DHT22;4739;49.334;8.792;2023-02-25T05:35:24;5.40;99.90
9399;DHT22;4739;49.334;8.792;2023-02-25T05:37:49;5.30;99.90
9399;DHT22;4739;49.334;8.792;2023-02-25T05:40:15;5.40;99.90
9399;DHT22;4739;49.334;8.792;2023-02-25T05:42:41;5.30;99.90
9399;DHT22;4739;49.334;8.792;2023-02-25T05:45:07;5.20;99.90
9399;DHT22;4739;49.334;8.792;2023-02-25T05:47:33;5.30;99.90
9399;DHT22;4739;49.334;8.792;2023-02-25T05:50:00;5.30;99.90
9399;DHT22;4739;49.334;8.792;2023-02-25T05:54:56;5.20;99.90
9399;DHT22;4739;49.334;8.792;2023-02-25T05:57:22;5.20;99.90
9399;DHT22;4739;49.334;8.792;2023-02-25T05:59:48;5.30;99.90
9399;DHT22;4739;49.334;8.792;2023-02-25T06:02:14;5.30;99.90
9399;DHT22;4739;49.334;8.792;2023-02-25T06:04:39;5.20;99.90
9399;DHT22;4739;49.334;8.792;2023-02-25T06:07:06;5.20;99.90
9399;DHT22;4739;49.334;8.792;2023-02-25T06:09:32;5.20;99.90
9399;DHT22;4739;49.334;8.792;2023-02-25T06:11:59;5.30;99.90
9399;DHT22;4739;49.334;8.792;2023-02-25T06:14:25;5.20;99.90
9399;DHT22;4739;49.334;8.792;2023-02-25T06:16:51;5.20;99.90
9399;DHT22;4739;49.334;8.792;2023-02-25T06:19:23;5.30;99.90
9399;DHT22;4739;49.334;8.792;2023-02-25T06:21:54;5.30;99.90
9399;DHT22;4739;49.334;8.792;2023-02-25T06:24:23;5.30;99.90
9399;DHT22;4739;49.334;8.792;2023-02-25T06:26:49;5.20;99.90
9399;DHT22;4739;49.334;8.792;2023-02-25T06:29:15;5.20;99.90
9399;DHT22;4739;49.334;8.792;2023-02-25T06:31:40;5.20;99.90
9399;DHT22;4739;49.334;8.792;2023-02-25T06:34:06;5.30;99.90
9399;DHT22;4739;49.334;8.792;2023-02-25T06:36:32;5.30;99.90
9399;DHT22;4739;49.334;8.792;2023-02-25T06:38:58;5.30;99.90
9399;DHT22;4739;49.334;8.792;2023-02-25T06:41:24;5.30;99.90
9399;DHT22;4739;49.334;8.792;2023-02-25T06:43:50;5.30;99.90
9399;DHT22;4739;49.334;8.792;2023-02-25T06:46:22;5.40;99.90
9399;DHT22;4739;49.334;8.792;2023-02-25T06:48:47;5.40;99.90
9399;DHT22;4739;49.334;8.792;2023-02-25T06:51:13;5.20;99.90
9399;DHT22;4739;49.334;8.792;2023-02-25T06:53:41;5.30;99.90
9399;DHT22;4739;49.334;8.792;2023-02-25T06:56:09;5.40;99.90
9399;DHT22;4739;49.334;8.792;2023-02-25T06:58:35;5.30;99.90
9399;DHT22;4739;49.334;8.792;2023-02-25T07:01:08;5.30;99.90
9399;DHT22;4739;49.334;8.792;2023-02-25T07:03:34;5.40;99.90
9399;DHT22;4739;49.334;8.792;2023-02-25T07:06:00;5.40;99.90
9399;DHT22;4739;49.334;8.792;2023-02-25T07:08:26;5.40;99.90
9399;DHT22;4739;49.334;8.792;2023-02-25T07:10:51;5.30;99.90
9399;DHT22;4739;49.334;8.792;2023-02-25T07:13:17;5.30;99.90
9399;DHT22;4739;49.334;8.792;2023-02-25T07:15:42;5.30;99.90
9399;DHT22;4739;49.334;8.792;2023-02-25T07:18:08;5.30;99.90
9399;DHT22;4739;49.334;8.792;2023-02-25T07:20:34;5.40;99.90
9399;DHT22;4739;49.334;8.792;2023-02-25T07:23:02;5.40;99.90
9399;DHT22;4739;49.334;8.792;2023-02-25T07:25:29;5.40;99.90
9399;DHT22;4739;49.334;8.792;2023-02-25T07:27:54;5.40;99.90
9399;DHT22;4739;49.334;8.792;2023-02-25T07:30:20;5.30;99.90
9399;DHT22;4739;49.334;8.792;2023-02-25T07:32:45;5.40;99.90
9399;DHT22;4739;49.334;8.792;2023-02-25T07:35:11;5.40;99.90
9399;DHT22;4739;49.334;8.792;2023-02-25T07:37:37;5.40;99.90
9399;DHT22;4739;49.334;8.792;2023-02-25T07:40:07;5.50;99.90
9399;DHT22;4739;49.334;8.792;2023-02-25T07:42:40;5.50;99.90
9399;DHT22;4739;49.334;8.792;2023-02-25T07:45:07;5.50;99.90
9399;DHT22;4739;49.334;8.792;2023-02-25T07:47:32;5.60;99.90
9399;DHT22;4739;49.334;8.792;2023-02-25T07:49:58;5.60;99.90
9399;DHT22;4739;49.334;8.792;2023-02-25T07:54:59;5.70;99.90
9399;DHT22;4739;49.334;8.792;2023-02-25T07:57:25;5.70;99.90
9399;DHT22;4739;49.334;8.792;2023-02-25T07:59:50;5.80;99.90
9399;DHT22;4739;49.334;8.792;2023-02-25T08:02:16;5.90;99.90
9399;DHT22;4739;49.334;8.792;2023-02-25T08:04:41;5.90;99.90
9399;DHT22;4739;49.334;8.792;2023-02-25T08:07:07;5.90;99.90
9399;DHT22;4739;49.334;8.792;2023-02-25T08:09:33;6.00;99.90
9399;DHT22;4739;49.334;8.792;2023-02-25T08:11:58;6.00;99.90
9399;DHT22;4739;49.334;8.792;2023-02-25T08:14:24;6.00;99.90
9399;DHT22;4739;49.334;8.792;2023-02-25T08:16:49;6.00;99.90
9399;DHT22;4739;49.334;8.792;2023-02-25T08:19:15;5.90;99.90
9399;DHT22;4739;49.334;8.792;2023-02-25T08:21:40;6.00;99.90
9399;DHT22;4739;49.334;8.792;2023-02-25T08:24:07;6.00;99.90
9399;DHT22;4739;49.334;8.792;2023-02-25T08:26:33;6.00;99.90
9399;DHT22;4739;49.334;8.792;2023-02-25T08:28:59;5.90;99.90
9399;DHT22;4739;49.334;8.792;2023-02-25T08:31:25;5.90;99.90
9399;DHT22;4739;49.334;8.792;2023-02-25T08:33:51;5.90;99.90
9399;DHT22;4739;49.334;8.792;2023-02-25T08:36:28;5.90;99.90
9399;DHT22;4739;49.334;8.792;2023-02-25T08:38:56;6.10;99.90
9399;DHT22;4739;49.334;8.792;2023-02-25T08:41:22;6.20;99.90
9399;DHT22;4739;49.334;8.792;2023-02-25T08:43:50;6.30;99.90
9399;DHT22;4739;49.334;8.792;2023-02-25T08:46:18;6.30;99.90
9399;DHT22;4739;49.334;8.792;2023-02-25T08:48:47;6.40;99.90
9399;DHT22;4739;49.334;8.792;2023-02-25T08:51:13;6.50;99.90
9399;DHT22;4739;49.334;8.792;2023-02-25T08:53:40;6.50;99.90
9399;DHT22;4739;49.334;8.792;2023-02-25T08:56:07;6.50;99.90
9399;DHT22;4739;49.334;8.792;2023-02-25T08:58:33;6.60;99.90
9399;DHT22;4739;49.334;8.792;2023-02-25T09:00:59;6.70;99.90
9399;DHT22;4739;49.334;8.792;2023-02-25T09:03:25;6.70;99.90
9399;DHT22;4739;49.334;8.792;2023-02-25T09:05:52;6.70;99.90
9399;DHT22;4739;49.334;8.792;2023-02-25T09:08:18;6.70;99.90
9399;DHT22;4739;49.334;8.792;2023-02-25T09:10:45;6.60;99.90
9399;DHT22;4739;49.334;8.792;2023-02-25T09:13:11;6.60;99.90
9399;DHT22;4739;49.334;8.792;2023-02-25T09:15:36;6.60;99.90
9399;DHT22;4739;49.334;8.792;2023-02-25T09:18:02;6.50;99.90
9399;DHT22;4739;49.334;8.792;2023-02-25T09:20:28;6.40;99.90
9399;DHT22;4739;49.334;8.792;2023-02-25T09:22:53;6.50;99.90
9399;DHT22;4739;49.334;8.792;2023-02-25T09:25:20;6.50;99.90
9399;DHT22;4739;49.334;8.792;2023-02-25T09:27:45;6.50;99.90
9399;DHT22;4739;49.334;8.792;2023-02-25T09:30:11;6.50;99.90
9399;DHT22;4739;49.334;8.792;2023-02-25T09:32:37;6.40;99.90
9399;DHT22;4739;49.334;8.792;2023-02-25T09:35:03;6.40;99.90
9399;DHT22;4739;49.334;8.792;2023-02-25T09:37:32;6.40;99.90
9399;DHT22;4739;49.334;8.792;2023-02-25T09:39:58;6.50;99.90
9399;DHT22;4739;49.334;8.792;2023-02-25T09:42:30;6.40;99.90
9399;DHT22;4739;49.334;8.792;2023-02-25T09:44:59;6.40;99.90
9399;DHT22;4739;49.334;8.792;2023-02-25T09:47:32;6.50;99.90
9399;DHT22;4739;49.334;8.792;2023-02-25T09:50:13;6.60;99.90
9399;DHT22;4739;49.334;8.792;2023-02-25T09:58:05;6.30;99.90
9399;DHT22;4739;49.334;8.792;2023-02-25T10:00:44;6.10;99.90
9399;DHT22;4739;49.334;8.792;2023-02-25T10:03:41;6.00;99.90
9399;DHT22;4739;49.334;8.792;2023-02-25T10:12:09;5.70;99.90
9399;DHT22;4739;49.334;8.792;2023-02-25T10:17:46;5.60;99.90
9399;DHT22;4739;49.334;8.792;2023-02-25T10:26:28;5.80;99.90
9399;DHT22;4739;49.334;8.792;2023-02-25T10:29:04;5.80;99.90
9399;DHT22;4739;49.334;8.792;2023-02-25T10:31:31;5.80;99.90
9399;DHT22;4739;49.334;8.792;2023-02-25T10:33:59;5.90;99.90
9399;DHT22;4739;49.334;8.792;2023-02-25T10:36:34;5.90;99.90
9399;DHT22;4739;49.334;8.792;2023-02-25T10:39:04;6.10;99.90
9399;DHT22;4739;49.334;8.792;2023-02-25T10:41:29;6.30;99.90
9399;DHT22;4739;49.334;8.792;2023-02-25T10:43:57;6.50;99.90
9399;DHT22;4739;49.334;8.792;2023-02-25T10:46:29;6.50;99.90
9399;DHT22;4739;49.334;8.792;2023-02-25T10:49:00;6.70;99.90
9399;DHT22;4739;49.334;8.792;2023-02-25T10:51:27;6.60;99.90
9399;DHT22;4739;49.334;8.792;2023-02-25T10:56:27;6.70;99.90
9399;DHT22;4739;49.334;8.792;2023-02-25T10:59:04;6.80;99.90
9399;DHT22;4739;49.334;8.792;2023-02-25T11:01:37;7.00;99.90
9399;DHT22;4739;49.334;8.792;2023-02-25T11:04:07;7.10;99.90
9399;DHT22;4739;49.334;8.792;2023-02-25T11:06:37;7.00;99.90
9399;DHT22;4739;49.334;8.792;2023-02-25T11:12:14;7.40;99.90
9399;DHT22;4739;49.334;8.792;2023-02-25T11:14:40;7.20;99.90
9399;DHT22;4739;49.334;8.792;2023-02-25T11:17:13;7.30;99.90
9399;DHT22;4739;49.334;8.792;2023-02-25T11:19:58;7.30;99.90
9399;DHT22;4739;49.334;8.792;2023-02-25T11:22:40;7.40;99.90
9399;DHT22;4739;49.334;8.792;2023-02-25T11:25:17;7.50;99.90
9399;DHT22;4739;49.334;8.792;2023-02-25T11:27:46;7.70;99.90
9399;DHT22;4739;49.334;8.792;2023-02-25T11:30:19;7.70;99.90
9399;DHT22;4739;49.334;8.792;2023-02-25T11:32:53;7.90;99.90
9399;DHT22;4739;49.334;8.792;2023-02-25T11:35:25;7.80;99.90
9399;DHT22;4739;49.334;8.792;2023-02-25T11:37:58;7.60;99.90
9399;DHT22;4739;49.334;8.792;2023-02-25T11:40:42;7.60;99.90
9399;DHT22;4739;49.334;8.792;2023-02-25T11:43:20;7.30;99.90
9399;DHT22;4739;49.334;8.792;2023-02-25T11:48:21;7.00;99.90
9399;DHT22;4739;49.334;8.792;2023-02-25T11:56:50;6.60;99.90
9399;DHT22;4739;49.334;8.792;2023-02-25T12:02:21;7.00;99.90
9399;DHT22;4739;49.334;8.792;2023-02-25T12:22:07;6.90;99.90
9399;DHT22;4739;49.334;8.792;2023-02-25T12:25:19;7.30;99.90
